createdAt,value
2023-04-23T00:01:22.310Z,104.65
2023-04-23T00:03:51.461Z,102.60
2023-04-23T00:06:22.480Z,110.28
2023-04-23T00:08:54.817Z,102.65
2023-04-23T00:11:23.839Z,103.15
2023-04-23T00:13:52.921Z,105.18
2023-04-23T00:16:22.730Z,101.07
2023-04-23T00:18:51.199Z,96.30
2023-04-23T00:21:19.473Z,99.72
2023-04-23T00:23:50.847Z,103.65
2023-04-23T00:26:20.857Z,99.10
2023-04-23T00:28:49.260Z,97.90
2023-04-23T00:31:17.659Z,102.90
2023-04-23T00:33:45.974Z,97.32
2023-04-23T00:36:14.230Z,93.32
2023-04-23T00:38:42.672Z,96.50
2023-04-23T00:41:11.034Z,95.72
2023-04-23T00:43:40.835Z,99.32
2023-04-23T00:46:09.306Z,101.63
2023-04-23T00:48:38.294Z,92.47
2023-04-23T00:51:07.742Z,95.15
2023-04-23T00:53:36.158Z,93.20
2023-04-23T00:56:06.989Z,89.38
2023-04-23T00:58:35.796Z,96.00
2023-04-23T01:01:06.365Z,91.75
2023-04-23T01:03:37.952Z,92.72
2023-04-23T01:06:07.461Z,88.72
2023-04-23T01:08:36.249Z,98.07
2023-04-23T01:11:04.942Z,92.22
2023-04-23T01:13:33.751Z,86.55
2023-04-23T01:16:03.975Z,84.63
2023-04-23T01:18:32.510Z,78.28
2023-04-23T01:21:01.796Z,83.28
2023-04-23T01:23:32.096Z,78.35
2023-04-23T01:26:00.800Z,74.53
2023-04-23T01:28:29.229Z,77.15
2023-04-23T01:30:59.152Z,71.75
2023-04-23T01:33:28.018Z,70.97
2023-04-23T01:35:57.778Z,69.60
2023-04-23T01:38:32.428Z,73.95
2023-04-23T01:41:01.004Z,70.15
2023-04-23T01:43:30.365Z,70.57
2023-04-23T01:45:59.576Z,69.80
2023-04-23T01:48:28.249Z,68.75
2023-04-23T01:50:57.107Z,66.70
2023-04-23T01:53:25.475Z,66.10
2023-04-23T01:55:58.768Z,65.20
2023-04-23T01:58:27.143Z,63.25
2023-04-23T02:00:55.619Z,60.47
2023-04-23T02:03:24.123Z,59.35
2023-04-23T02:05:53.389Z,58.75
2023-04-23T02:08:21.826Z,61.90
2023-04-23T02:10:50.154Z,55.33
2023-04-23T02:13:19.839Z,54.30
2023-04-23T02:15:48.255Z,51.38
2023-04-23T02:18:16.582Z,48.08
2023-04-23T02:20:44.922Z,57.15
2023-04-23T02:23:13.340Z,54.33
2023-04-23T02:25:43.435Z,57.53
2023-04-23T02:28:13.452Z,53.05
2023-04-23T02:30:46.199Z,50.50
2023-04-23T02:33:14.783Z,52.45
2023-04-23T02:35:43.313Z,53.20
2023-04-23T02:38:12.063Z,46.13
2023-04-23T02:40:40.515Z,49.05
2023-04-23T02:43:08.928Z,47.50
2023-04-23T02:45:37.275Z,47.67
2023-04-23T02:48:07.134Z,49.38
2023-04-23T02:50:35.615Z,46.35
2023-04-23T02:53:03.963Z,45.85
2023-04-23T02:55:32.975Z,47.00
2023-04-23T02:58:04.318Z,52.97
2023-04-23T03:00:32.707Z,47.03
2023-04-23T03:03:01.217Z,47.47
2023-04-23T03:05:31.214Z,47.33
2023-04-23T03:07:59.726Z,44.45
2023-04-23T03:10:28.100Z,44.65
2023-04-23T03:12:56.514Z,46.38
2023-04-23T03:15:25.417Z,46.72
2023-04-23T03:17:53.971Z,45.47
2023-04-23T03:20:22.405Z,45.08
2023-04-23T03:22:52.095Z,43.55
2023-04-23T03:25:20.457Z,42.55
2023-04-23T03:27:48.946Z,47.58
2023-04-23T03:30:17.237Z,46.88
2023-04-23T03:32:45.785Z,51.28
2023-04-23T03:35:14.201Z,47.60
2023-04-23T03:37:42.504Z,46.67
2023-04-23T03:40:12.946Z,46.58
2023-04-23T03:42:41.383Z,48.25
2023-04-23T03:45:11.326Z,47.13
2023-04-23T03:47:39.780Z,49.75
2023-04-23T03:50:10.269Z,43.95
2023-04-23T03:52:38.584Z,46.13
2023-04-23T03:55:08.744Z,47.47
2023-04-23T03:57:38.741Z,46.63
2023-04-23T04:00:11.877Z,49.10
2023-04-23T04:02:40.920Z,45.28
2023-04-23T04:05:11.366Z,50.55
2023-04-23T04:07:40.388Z,44.88
2023-04-23T04:10:09.468Z,46.60
2023-04-23T04:12:39.852Z,47.60
2023-04-23T04:15:09.885Z,50.42
2023-04-23T04:17:38.265Z,45.20
2023-04-23T04:20:08.624Z,46.15
2023-04-23T04:22:36.960Z,45.30
2023-04-23T04:25:07.022Z,45.83
2023-04-23T04:27:35.344Z,43.70
2023-04-23T04:30:06.835Z,50.95
2023-04-23T04:32:35.787Z,48.15
2023-04-23T04:35:04.250Z,48.40
2023-04-23T04:37:32.655Z,53.03
2023-04-23T04:40:01.560Z,49.42
2023-04-23T04:42:29.959Z,51.03
2023-04-23T04:44:59.649Z,52.63
2023-04-23T04:47:29.480Z,50.10
2023-04-23T04:49:57.956Z,50.75
2023-04-23T04:52:26.376Z,48.50
2023-04-23T04:54:54.658Z,49.22
2023-04-23T04:57:23.138Z,53.40
2023-04-23T04:59:51.624Z,53.97
2023-04-23T05:02:21.696Z,50.63
2023-04-23T05:04:51.467Z,53.20
2023-04-23T05:07:19.865Z,47.10
2023-04-23T05:09:48.237Z,52.25
2023-04-23T05:12:16.596Z,50.53
2023-04-23T05:14:44.936Z,50.92
2023-04-23T05:17:13.667Z,57.42
2023-04-23T05:19:42.001Z,53.15
2023-04-23T05:22:11.746Z,50.47
2023-04-23T05:24:41.380Z,52.67
2023-04-23T05:27:09.958Z,48.90
2023-04-23T05:29:38.578Z,48.65
2023-04-23T05:32:10.360Z,47.88
2023-04-23T05:34:38.959Z,44.78
2023-04-23T05:37:07.749Z,44.72
2023-04-23T05:39:37.436Z,48.30
2023-04-23T05:42:06.986Z,45.95
2023-04-23T05:44:35.313Z,45.92
2023-04-23T05:47:03.806Z,47.83
2023-04-23T05:49:32.156Z,40.92
2023-04-23T05:52:00.749Z,45.58
2023-04-23T05:54:29.175Z,44.97
2023-04-23T05:56:58.929Z,43.58
2023-04-23T05:59:27.259Z,44.38
2023-04-23T06:01:56.041Z,39.35
2023-04-23T06:04:24.608Z,42.30
2023-04-23T06:06:53.083Z,41.92
2023-04-23T06:09:21.462Z,44.10
2023-04-23T06:11:50.679Z,40.28
2023-04-23T06:14:20.894Z,40.85
2023-04-23T06:16:51.877Z,41.70
2023-04-23T06:19:20.266Z,37.80
2023-04-23T06:21:52.233Z,37.80
2023-04-23T06:24:20.732Z,36.92
2023-04-23T06:26:54.632Z,35.35
2023-04-23T06:29:24.370Z,35.78
2023-04-23T06:31:52.954Z,36.47
2023-04-23T06:34:21.333Z,35.97
2023-04-23T06:36:49.692Z,35.63
2023-04-23T06:39:18.198Z,35.72
2023-04-23T06:41:46.663Z,36.25
2023-04-23T06:44:14.996Z,33.92
2023-04-23T06:46:44.757Z,32.17
2023-04-23T06:49:13.331Z,28.67
2023-04-23T06:51:41.632Z,30.05
2023-04-23T06:54:09.990Z,30.60
2023-04-23T06:56:38.402Z,30.63
2023-04-23T06:59:07.822Z,19.95
2023-04-23T07:01:37.065Z,22.20
2023-04-23T07:04:06.928Z,20.23
2023-04-23T07:06:35.738Z,15.13
2023-04-23T07:09:04.990Z,18.00
2023-04-23T07:11:35.012Z,14.43
2023-04-23T07:14:03.856Z,22.08
2023-04-23T07:16:34.032Z,16.38
2023-04-23T07:19:03.045Z,15.43
2023-04-23T07:21:33.134Z,13.45
2023-04-23T07:24:06.847Z,16.00
2023-04-23T07:26:37.190Z,18.05
2023-04-23T07:29:07.861Z,17.13
2023-04-23T07:31:36.361Z,14.15
2023-04-23T07:34:04.981Z,14.70
2023-04-23T07:36:34.818Z,13.68
2023-04-23T07:39:03.198Z,15.20
2023-04-23T07:41:31.604Z,13.68
2023-04-23T07:43:59.897Z,14.15
2023-04-23T07:46:28.425Z,13.90
2023-04-23T07:48:56.737Z,17.52
2023-04-23T07:51:26.826Z,12.93
2023-04-23T07:53:58.089Z,15.73
2023-04-23T07:56:26.636Z,15.70
2023-04-23T07:58:56.620Z,14.13
2023-04-23T08:01:25.191Z,17.17
2023-04-23T08:03:59.034Z,15.77
2023-04-23T08:06:30.195Z,16.58
2023-04-23T08:09:00.423Z,13.98
2023-04-23T08:11:30.289Z,13.23
2023-04-23T08:13:58.684Z,13.80
2023-04-23T08:16:27.325Z,13.80
2023-04-23T08:19:04.734Z,13.35
2023-04-23T08:21:34.602Z,14.13
2023-04-23T08:24:04.715Z,15.20
2023-04-23T08:26:33.065Z,16.30
2023-04-23T08:29:01.763Z,15.63
2023-04-23T08:31:30.201Z,17.05
2023-04-23T08:33:59.319Z,12.13
2023-04-23T08:36:27.745Z,16.65
2023-04-23T08:38:56.044Z,12.60
2023-04-23T08:41:34.859Z,12.80
2023-04-23T08:44:12.589Z,11.38
2023-04-23T08:46:46.649Z,11.32
2023-04-23T08:49:17.848Z,15.65
2023-04-23T08:51:51.176Z,15.73
2023-04-23T08:54:24.783Z,11.05
2023-04-23T08:56:59.848Z,14.25
2023-04-23T08:59:32.305Z,10.68
2023-04-23T09:02:08.008Z,16.13
2023-04-23T09:04:37.266Z,14.15
2023-04-23T09:07:08.163Z,11.50
2023-04-23T09:09:37.042Z,14.60
2023-04-23T09:12:08.271Z,15.63
2023-04-23T09:14:37.081Z,14.23
2023-04-23T09:17:06.334Z,11.55
2023-04-23T09:19:39.280Z,11.30
2023-04-23T09:22:10.129Z,14.15
2023-04-23T09:24:38.452Z,13.23
2023-04-23T09:27:08.205Z,17.13
2023-04-23T09:29:36.932Z,16.35
2023-04-23T09:32:09.571Z,11.40
2023-04-23T09:34:38.649Z,12.57
2023-04-23T09:37:11.056Z,12.05
2023-04-23T09:39:41.416Z,14.05
2023-04-23T09:42:13.519Z,16.48
2023-04-23T09:44:42.010Z,15.80
2023-04-23T09:47:14.859Z,12.13
2023-04-23T09:49:50.701Z,12.63
2023-04-23T09:52:19.330Z,9.63
2023-04-23T09:54:50.598Z,10.32
2023-04-23T09:57:20.374Z,12.60
2023-04-23T09:59:55.007Z,17.67
2023-04-23T10:02:33.971Z,10.90
2023-04-23T10:05:14.570Z,12.65
2023-04-23T10:07:50.922Z,11.45
2023-04-23T10:10:20.881Z,12.82
2023-04-23T10:12:55.274Z,12.48
2023-04-23T10:15:27.529Z,11.02
2023-04-23T10:17:56.816Z,11.60
2023-04-23T10:20:26.077Z,12.23
2023-04-23T10:22:58.060Z,12.77
2023-04-23T10:25:27.843Z,13.02
2023-04-23T10:28:00.044Z,11.93
2023-04-23T10:30:29.193Z,9.82
2023-04-23T10:33:02.540Z,9.38
2023-04-23T10:35:32.272Z,9.93
2023-04-23T10:38:00.975Z,10.75
2023-04-23T10:40:35.296Z,12.77
2023-04-23T10:43:05.052Z,11.55
2023-04-23T10:45:33.749Z,11.85
2023-04-23T10:48:02.193Z,8.57
2023-04-23T10:50:34.159Z,15.48
2023-04-23T10:53:04.305Z,11.98
2023-04-23T10:55:33.999Z,8.63
2023-04-23T10:58:07.376Z,11.30
2023-04-23T11:00:46.841Z,8.50
2023-04-23T11:03:44.092Z,7.28
2023-04-23T11:06:16.648Z,7.38
2023-04-23T11:08:55.128Z,9.82
2023-04-23T11:11:41.109Z,10.20
2023-04-23T11:14:15.450Z,10.70
2023-04-23T11:16:44.183Z,8.02
2023-04-23T11:19:13.662Z,8.77
2023-04-23T11:22:01.085Z,8.98
2023-04-23T11:24:31.441Z,12.18
2023-04-23T11:27:01.287Z,10.52
2023-04-23T11:29:31.112Z,8.13
2023-04-23T11:32:03.203Z,6.03
2023-04-23T11:34:33.608Z,8.80
2023-04-23T11:37:05.035Z,6.90
2023-04-23T11:39:33.622Z,5.75
2023-04-23T11:42:03.192Z,7.65
2023-04-23T11:44:33.052Z,11.05
2023-04-23T11:47:03.162Z,3.83
2023-04-23T11:49:31.583Z,7.35
2023-04-23T11:52:02.644Z,12.77
2023-04-23T11:54:31.012Z,13.05
2023-04-23T11:57:00.028Z,9.45
2023-04-23T11:59:28.909Z,8.35
2023-04-23T12:02:00.713Z,8.70
2023-04-23T12:04:31.282Z,9.68
2023-04-23T12:07:05.770Z,8.85
2023-04-23T12:09:39.228Z,6.93
2023-04-23T12:12:07.696Z,6.40
2023-04-23T12:14:36.062Z,8.15
2023-04-23T12:17:12.848Z,9.25
2023-04-23T12:19:44.850Z,8.70
2023-04-23T12:22:13.196Z,9.13
2023-04-23T12:24:53.553Z,7.93
2023-04-23T12:27:23.222Z,5.93
2023-04-23T12:30:01.006Z,11.18
2023-04-23T12:32:30.724Z,6.97
2023-04-23T12:34:59.995Z,7.55
2023-04-23T12:37:31.115Z,9.38
2023-04-23T12:39:59.799Z,10.27
2023-04-23T12:42:28.395Z,7.80
2023-04-23T12:44:56.777Z,9.63
2023-04-23T12:47:25.281Z,7.43
2023-04-23T12:49:56.722Z,9.98
2023-04-23T12:52:25.036Z,8.68
2023-04-23T12:54:56.488Z,10.45
2023-04-23T12:57:25.315Z,7.57
2023-04-23T12:59:54.857Z,6.18
2023-04-23T13:02:25.221Z,5.97
2023-04-23T13:05:01.044Z,5.38
2023-04-23T13:07:29.917Z,8.85
2023-04-23T13:09:59.708Z,17.38
2023-04-23T13:12:28.385Z,16.05
2023-04-23T13:14:57.554Z,11.85
2023-04-23T13:17:26.484Z,14.18
2023-04-23T13:19:57.155Z,12.48
2023-04-23T13:22:28.736Z,11.25
2023-04-23T13:24:58.061Z,7.13
2023-04-23T13:27:28.087Z,8.27
2023-04-23T13:29:56.531Z,7.65
2023-04-23T13:32:27.475Z,10.13
2023-04-23T13:35:00.567Z,10.05
2023-04-23T13:37:28.930Z,7.13
2023-04-23T13:39:57.249Z,10.85
2023-04-23T13:42:25.574Z,10.20
2023-04-23T13:44:53.992Z,10.18
2023-04-23T13:47:22.325Z,8.38
2023-04-23T13:49:51.402Z,11.63
2023-04-23T13:52:21.193Z,6.18
2023-04-23T13:54:50.871Z,8.65
2023-04-23T13:57:19.201Z,7.35
2023-04-23T13:59:49.687Z,10.38
2023-04-23T14:02:17.995Z,13.85
2023-04-23T14:04:46.638Z,10.43
2023-04-23T14:07:15.161Z,16.00
2023-04-23T14:09:46.626Z,10.68
2023-04-23T14:12:14.959Z,11.48
2023-04-23T14:14:43.437Z,10.18
2023-04-23T14:17:11.721Z,20.02
2023-04-23T14:19:40.197Z,17.13
2023-04-23T14:22:09.203Z,13.60
2023-04-23T14:24:49.230Z,16.98
2023-04-23T14:27:17.560Z,12.38
2023-04-23T14:29:53.170Z,11.55
2023-04-23T14:32:21.516Z,11.10
2023-04-23T14:34:49.923Z,10.98
2023-04-23T14:37:18.380Z,7.95
2023-04-23T14:39:54.163Z,9.30
2023-04-23T14:42:22.445Z,12.60
2023-04-23T14:44:53.409Z,6.70
2023-04-23T14:47:21.681Z,9.73
2023-04-23T14:49:50.812Z,8.25
2023-04-23T14:52:19.127Z,9.65
2023-04-23T14:54:53.481Z,10.45
2023-04-23T14:57:21.800Z,5.80
2023-04-23T14:59:50.124Z,8.40
2023-04-23T15:02:18.511Z,8.52
2023-04-23T15:04:47.658Z,11.63
2023-04-23T15:07:16.037Z,8.00
2023-04-23T15:09:44.393Z,9.82
2023-04-23T15:12:48.860Z,9.75
2023-04-23T15:15:33.578Z,6.65
2023-04-23T15:18:06.565Z,11.82
2023-04-23T15:20:34.970Z,8.57
2023-04-23T15:23:03.478Z,7.38
2023-04-23T15:25:33.229Z,9.45
2023-04-23T15:28:03.766Z,5.60
2023-04-23T15:30:32.465Z,7.07
2023-04-23T15:33:01.335Z,4.22
2023-04-23T15:35:30.028Z,9.80
2023-04-23T15:37:58.589Z,7.72
2023-04-23T15:40:29.449Z,7.25
2023-04-23T15:42:58.333Z,6.68
2023-04-23T15:45:28.242Z,5.50
2023-04-23T15:47:56.984Z,4.70
2023-04-23T15:50:27.088Z,5.05
2023-04-23T15:52:57.301Z,3.95
2023-04-23T15:55:25.619Z,4.88
2023-04-23T15:57:53.876Z,6.93
2023-04-23T16:00:22.625Z,6.63
2023-04-23T16:02:52.497Z,6.18
2023-04-23T16:05:21.161Z,8.45
2023-04-23T16:07:49.593Z,6.38
2023-04-23T16:10:17.958Z,7.43
2023-04-23T16:12:48.557Z,8.52
2023-04-23T16:15:17.009Z,8.55
2023-04-23T16:17:47.758Z,7.65
2023-04-23T16:20:17.786Z,6.25
2023-04-23T16:22:46.611Z,10.35
2023-04-23T16:25:14.966Z,8.20
2023-04-23T16:27:43.495Z,6.13
2023-04-23T16:30:12.677Z,5.60
2023-04-23T16:32:40.997Z,11.13
2023-04-23T16:35:10.582Z,9.30
2023-04-23T16:37:40.696Z,9.18
2023-04-23T16:40:10.376Z,12.73
2023-04-23T16:42:39.202Z,9.05
2023-04-23T16:45:08.593Z,8.00
2023-04-23T16:47:36.890Z,8.05
2023-04-23T16:50:05.729Z,12.48
2023-04-23T16:52:34.191Z,6.18
2023-04-23T16:55:04.600Z,10.02
2023-04-23T16:57:33.205Z,7.32
2023-04-23T17:00:01.480Z,9.25
2023-04-23T17:02:29.883Z,8.20
2023-04-23T17:04:58.317Z,9.35
2023-04-23T17:07:26.754Z,8.50
2023-04-23T17:09:55.004Z,12.05
2023-04-23T17:12:24.627Z,9.63
2023-04-23T17:14:53.498Z,7.15
2023-04-23T17:17:22.140Z,10.88
2023-04-23T17:19:52.989Z,8.00
2023-04-23T17:22:21.319Z,5.28
2023-04-23T17:24:49.885Z,6.03
2023-04-23T17:27:18.210Z,10.60
2023-04-23T17:29:48.135Z,7.00
2023-04-23T17:32:16.422Z,10.23
2023-04-23T17:34:49.481Z,11.77
2023-04-23T17:37:22.763Z,8.15
2023-04-23T17:39:51.387Z,5.93
2023-04-23T17:42:19.755Z,7.72
2023-04-23T17:44:54.056Z,8.90
2023-04-23T17:47:22.753Z,8.55
2023-04-23T17:49:51.110Z,8.60
2023-04-23T17:52:19.475Z,6.75
2023-04-23T17:54:50.357Z,5.32
2023-04-23T17:57:18.717Z,8.27
2023-04-23T17:59:48.549Z,6.88
2023-04-23T18:02:17.316Z,8.43
2023-04-23T18:04:45.710Z,9.05
2023-04-23T18:07:15.784Z,7.45
2023-04-23T18:09:44.200Z,7.95
2023-04-23T18:12:12.800Z,6.85
2023-04-23T18:14:41.086Z,7.15
2023-04-23T18:17:10.891Z,6.40
2023-04-23T18:19:39.398Z,7.70
2023-04-23T18:22:08.279Z,8.77
2023-04-23T18:24:36.667Z,10.95
2023-04-23T18:27:05.066Z,12.18
2023-04-23T18:29:33.400Z,8.00
2023-04-23T18:32:01.897Z,9.45
2023-04-23T18:34:34.070Z,6.88
2023-04-23T18:37:04.748Z,7.82
2023-04-23T18:39:33.118Z,11.07
2023-04-23T18:42:01.890Z,8.57
2023-04-23T18:44:32.393Z,12.07
2023-04-23T18:47:00.810Z,10.32
2023-04-23T18:49:47.807Z,11.10
2023-04-23T18:52:16.102Z,11.95
2023-04-23T18:54:44.455Z,9.05
2023-04-23T18:57:12.714Z,9.65
2023-04-23T18:59:41.472Z,8.30
2023-04-23T19:02:11.827Z,8.85
2023-04-23T19:04:43.298Z,8.52
2023-04-23T19:07:11.761Z,9.95
2023-04-23T19:09:40.275Z,13.20
2023-04-23T19:12:08.818Z,12.68
2023-04-23T19:14:37.667Z,10.63
2023-04-23T19:17:06.278Z,15.27
2023-04-23T19:19:35.991Z,12.75
2023-04-23T19:22:05.960Z,11.60
2023-04-23T19:24:34.499Z,10.18
2023-04-23T19:27:02.876Z,8.40
2023-04-23T19:29:31.175Z,6.78
2023-04-23T19:31:59.630Z,6.32
2023-04-23T19:34:28.275Z,4.55
2023-04-23T19:36:56.691Z,5.53
2023-04-23T19:39:26.777Z,3.60
2023-04-23T19:41:55.052Z,5.68
2023-04-23T19:44:23.308Z,5.15
2023-04-23T19:46:51.723Z,3.38
2023-04-23T19:49:20.128Z,5.55
2023-04-23T19:51:52.891Z,6.05
2023-04-23T19:54:22.868Z,3.88
2023-04-23T19:56:54.120Z,2.95
2023-04-23T19:59:24.033Z,3.22
2023-04-23T20:01:53.036Z,2.70
2023-04-23T20:04:21.455Z,3.15
2023-04-23T20:06:49.815Z,5.32
2023-04-23T20:09:23.237Z,3.55
2023-04-23T20:11:54.494Z,3.78
2023-04-23T20:14:22.820Z,5.65
2023-04-23T20:16:51.287Z,3.38
2023-04-23T20:19:19.903Z,4.07
2023-04-23T20:21:50.567Z,4.32
2023-04-23T20:24:21.296Z,6.13
2023-04-23T20:26:50.290Z,3.10
2023-04-23T20:29:19.957Z,4.20
2023-04-23T20:31:51.121Z,4.25
2023-04-23T20:34:19.467Z,3.92
2023-04-23T20:36:51.169Z,4.45
2023-04-23T20:39:24.065Z,5.03
2023-04-23T20:41:54.757Z,3.97
2023-04-23T20:44:24.893Z,4.22
2023-04-23T20:46:53.248Z,3.80
2023-04-23T20:49:22.372Z,4.85
2023-04-23T20:51:50.689Z,3.78
2023-04-23T20:54:19.041Z,4.82
2023-04-23T20:56:47.835Z,5.65
2023-04-23T20:59:16.106Z,6.22
2023-04-23T21:01:45.910Z,5.22
2023-04-23T21:04:14.300Z,6.85
2023-04-23T21:06:43.417Z,7.93
2023-04-23T21:09:12.262Z,6.50
2023-04-23T21:11:41.034Z,6.28
2023-04-23T21:14:09.573Z,7.00
2023-04-23T21:16:41.118Z,5.60
2023-04-23T21:19:10.860Z,6.82
2023-04-23T21:21:39.257Z,4.22
2023-04-23T21:24:08.020Z,5.35
2023-04-23T21:26:36.627Z,6.22
2023-04-23T21:29:05.425Z,6.85
2023-04-23T21:31:44.387Z,3.75
2023-04-23T21:34:16.610Z,4.65
2023-04-23T21:36:45.818Z,4.63
2023-04-23T21:39:14.394Z,3.65
2023-04-23T21:41:43.384Z,4.25
2023-04-23T21:44:11.652Z,5.72
2023-04-23T21:46:43.228Z,2.13
2023-04-23T21:49:13.230Z,2.10
2023-04-23T21:51:41.745Z,2.67
2023-04-23T21:54:10.093Z,4.82
2023-04-23T21:56:38.677Z,1.30
2023-04-23T21:59:07.024Z,5.35
2023-04-23T22:01:36.845Z,5.13
2023-04-23T22:04:05.723Z,6.38
2023-04-23T22:06:35.744Z,5.70
2023-04-23T22:09:04.592Z,4.75
2023-04-23T22:11:34.571Z,6.53
2023-04-23T22:14:02.965Z,5.30
2023-04-23T22:16:31.434Z,5.57
2023-04-23T22:19:00.642Z,6.18
2023-04-23T22:21:29.406Z,5.55
2023-04-23T22:23:59.037Z,4.70
2023-04-23T22:26:27.612Z,8.57
2023-04-23T22:28:56.433Z,5.55
2023-04-23T22:31:24.765Z,4.80
2023-04-23T22:33:53.188Z,6.82
2023-04-23T22:36:21.610Z,4.78
2023-04-23T22:38:49.974Z,3.95
2023-04-23T22:41:19.665Z,5.03
2023-04-23T22:43:48.163Z,5.43
2023-04-23T22:46:17.028Z,5.30
2023-04-23T22:48:47.616Z,4.90
2023-04-23T22:51:16.327Z,7.63
2023-04-23T22:53:44.700Z,6.38
2023-04-23T22:56:13.072Z,5.65
2023-04-23T22:58:45.572Z,5.78
2023-04-23T23:01:13.883Z,6.43
2023-04-23T23:03:42.537Z,5.25
2023-04-23T23:06:10.998Z,6.38
2023-04-23T23:08:39.339Z,9.82
2023-04-23T23:11:07.681Z,6.15
2023-04-23T23:13:37.229Z,5.07
2023-04-23T23:16:07.447Z,6.30
2023-04-23T23:18:35.946Z,5.57
2023-04-23T23:21:04.363Z,6.50
2023-04-23T23:23:32.673Z,6.38
2023-04-23T23:26:01.097Z,6.60
2023-04-23T23:28:29.438Z,6.32
2023-04-23T23:30:57.989Z,6.63
2023-04-23T23:33:28.093Z,5.15
2023-04-23T23:35:57.149Z,7.00
2023-04-23T23:38:25.610Z,8.38
2023-04-23T23:40:54.004Z,8.55
2023-04-23T23:43:22.292Z,3.50
2023-04-23T23:45:50.660Z,5.95
2023-04-23T23:48:19.268Z,3.67
2023-04-23T23:50:49.032Z,3.80
2023-04-23T23:53:17.364Z,4.40
2023-04-23T23:55:45.641Z,6.00
2023-04-23T23:58:13.911Z,3.78
